sensor_id;sensor_type;location;lat;lon;timestamp;pressure;altitude;pressure_sealevel;temperature;humidity
48015;BME280;33780;51.034;7.120;2023-02-02T00:01:25;101254.03;;;8.68;72.90
48015;BME280;33780;51.034;7.120;2023-02-02T00:03:51;101253.19;;;8.68;72.90
48015;BME280;33780;51.034;7.120;2023-02-02T00:06:21;101246.88;;;8.69;72.77
48015;BME280;33780;51.034;7.120;2023-02-02T00:08:47;101247.75;;;8.69;72.69
48015;BME280;33780;51.034;7.120;2023-02-02T00:11:13;101246.78;;;8.70;72.66
48015;BME280;33780;51.034;7.120;2023-02-02T00:13:38;101248.59;;;8.70;72.86
48015;BME280;33780;51.034;7.120;2023-02-02T00:18:56;101238.03;;;8.68;73.11
48015;BME280;33780;51.034;7.120;2023-02-02T00:21:22;101242.50;;;8.68;73.50
48015;BME280;33780;51.034;7.120;2023-02-02T00:23:48;101244.22;;;8.69;72.98
48015;BME280;33780;51.034;7.120;2023-02-02T00:26:13;101239.72;;;8.69;72.97
48015;BME280;33780;51.034;7.120;2023-02-02T00:28:40;101250.41;;;8.69;72.99
48015;BME280;33780;51.034;7.120;2023-02-02T00:31:05;101239.63;;;8.71;73.79
48015;BME280;33780;51.034;7.120;2023-02-02T00:33:30;101245.06;;;8.69;73.18
48015;BME280;33780;51.034;7.120;2023-02-02T00:35:56;101244.22;;;8.69;73.22
48015;BME280;33780;51.034;7.120;2023-02-02T00:38:21;101249.56;;;8.69;73.28
48015;BME280;33780;51.034;7.120;2023-02-02T00:40:47;101249.56;;;8.69;73.18
48015;BME280;33780;51.034;7.120;2023-02-02T00:43:12;101244.22;;;8.69;73.27
48015;BME280;33780;51.034;7.120;2023-02-02T00:45:38;101242.28;;;8.71;73.10
48015;BME280;33780;51.034;7.120;2023-02-02T00:48:04;101237.81;;;8.71;73.45
48015;BME280;33780;51.034;7.120;2023-02-02T00:50:30;101236.09;;;8.70;73.32
48015;BME280;33780;51.034;7.120;2023-02-02T00:52:55;101236.09;;;8.70;73.46
48015;BME280;33780;51.034;7.120;2023-02-02T00:55:23;101223.63;;;8.71;73.53
48015;BME280;33780;51.034;7.120;2023-02-02T00:57:48;101230.03;;;8.68;73.28
48015;BME280;33780;51.034;7.120;2023-02-02T01:00:19;101233.66;;;8.67;73.55
48015;BME280;33780;51.034;7.120;2023-02-02T01:02:45;101229.16;;;8.68;73.48
48015;BME280;33780;51.034;7.120;2023-02-02T01:05:11;101230.03;;;8.68;73.13
48015;BME280;33780;51.034;7.120;2023-02-02T01:07:37;101239.72;;;8.69;73.75
48015;BME280;33780;51.034;7.120;2023-02-02T01:10:04;101237.06;;;8.69;73.74
48015;BME280;33780;51.034;7.120;2023-02-02T01:12:30;101238.13;;;8.67;74.04
48015;BME280;33780;51.034;7.120;2023-02-02T01:14:56;101241.88;;;8.64;74.41
48015;BME280;33780;51.034;7.120;2023-02-02T01:17:21;101228.44;;;8.66;74.47
48015;BME280;33780;51.034;7.120;2023-02-02T01:19:47;101241.88;;;8.64;74.24
48015;BME280;33780;51.034;7.120;2023-02-02T01:22:13;101241.03;;;8.64;74.51
48015;BME280;33780;51.034;7.120;2023-02-02T01:24:38;101234.84;;;8.63;74.88
48015;BME280;33780;51.034;7.120;2023-02-02T01:27:04;101241.97;;;8.63;74.72
48015;BME280;33780;51.034;7.120;2023-02-02T01:29:29;101258.94;;;8.62;75.01
48015;BME280;33780;51.034;7.120;2023-02-02T01:31:55;101262.38;;;8.64;74.82
48015;BME280;33780;51.034;7.120;2023-02-02T01:34:20;101255.41;;;8.61;75.43
48015;BME280;33780;51.034;7.120;2023-02-02T01:36:46;101252.84;;;8.60;74.83
48015;BME280;33780;51.034;7.120;2023-02-02T01:39:11;101257.44;;;8.58;75.89
48015;BME280;33780;51.034;7.120;2023-02-02T01:41:39;101252.22;;;8.56;75.64
48015;BME280;33780;51.034;7.120;2023-02-02T01:44:49;101260.09;;;8.58;75.22
48015;BME280;33780;51.034;7.120;2023-02-02T01:46:51;101267.13;;;8.59;75.36
48015;BME280;33780;51.034;7.120;2023-02-02T01:49:18;101266.28;;;8.58;75.72
48015;BME280;33780;51.034;7.120;2023-02-02T01:51:53;101266.50;;;8.55;76.25
48015;BME280;33780;51.034;7.120;2023-02-02T01:54:36;101273.66;;;8.55;76.38
48015;BME280;33780;51.034;7.120;2023-02-02T01:57:22;101277.19;;;8.55;76.06
48015;BME280;33780;51.034;7.120;2023-02-02T01:59:49;101283.38;;;8.56;76.18
48015;BME280;33780;51.034;7.120;2023-02-02T02:02:16;101279.84;;;8.55;76.08
48015;BME280;33780;51.034;7.120;2023-02-02T02:04:41;101272.69;;;8.56;76.69
48015;BME280;33780;51.034;7.120;2023-02-02T02:07:08;101289.66;;;8.55;76.72
48015;BME280;33780;51.034;7.120;2023-02-02T02:09:34;101280.81;;;8.54;77.05
48015;BME280;33780;51.034;7.120;2023-02-02T02:11:59;101284.53;;;8.52;77.06
48015;BME280;33780;51.034;7.120;2023-02-02T02:14:25;101280.91;;;8.53;76.99
48015;BME280;33780;51.034;7.120;2023-02-02T02:37:38;101264.38;;;8.47;77.79
48015;BME280;33780;51.034;7.120;2023-02-02T02:40:07;101267.03;;;8.47;77.45
48015;BME280;33780;51.034;7.120;2023-02-02T02:42:38;101276.75;;;8.48;77.97
48015;BME280;33780;51.034;7.120;2023-02-02T02:45:07;101276.84;;;8.47;77.87
48015;BME280;33780;51.034;7.120;2023-02-02T02:47:34;101261.72;;;8.47;77.81
48015;BME280;33780;51.034;7.120;2023-02-02T02:50:01;101273.13;;;8.50;77.72
48015;BME280;33780;51.034;7.120;2023-02-02T02:52:27;101264.28;;;8.49;78.25
48015;BME280;33780;51.034;7.120;2023-02-02T02:54:54;101259.03;;;8.47;78.42
48015;BME280;33780;51.034;7.120;2023-02-02T03:00:31;101263.53;;;8.47;78.06
48015;BME280;33780;51.034;7.120;2023-02-02T03:08:40;101268.97;;;8.45;77.93
48015;BME280;33780;51.034;7.120;2023-02-02T03:11:10;101268.00;;;8.46;78.21
48015;BME280;33780;51.034;7.120;2023-02-02T03:13:37;101262.66;;;8.46;78.27
48015;BME280;33780;51.034;7.120;2023-02-02T03:16:03;101270.66;;;8.46;77.96
48015;BME280;33780;51.034;7.120;2023-02-02T03:18:30;101270.66;;;8.46;78.14
48015;BME280;33780;51.034;7.120;2023-02-02T03:20:56;101260.84;;;8.47;78.21
48015;BME280;33780;51.034;7.120;2023-02-02T03:23:23;101268.75;;;8.48;77.89
48015;BME280;33780;51.034;7.120;2023-02-02T03:25:48;101261.72;;;8.47;77.88
48015;BME280;33780;51.034;7.120;2023-02-02T03:28:15;101272.28;;;8.49;77.95
48015;BME280;33780;51.034;7.120;2023-02-02T03:30:42;101274.09;;;8.48;78.10
48015;BME280;33780;51.034;7.120;2023-02-02T03:33:09;101274.19;;;8.47;78.29
48015;BME280;33780;51.034;7.120;2023-02-02T03:35:35;101268.00;;;8.46;78.19
48015;BME280;33780;51.034;7.120;2023-02-02T03:38:01;101278.56;;;8.48;77.64
48015;BME280;33780;51.034;7.120;2023-02-02T03:40:27;101271.41;;;8.48;78.24
48015;BME280;33780;51.034;7.120;2023-02-02T03:42:52;101269.81;;;8.46;78.35
48015;BME280;33780;51.034;7.120;2023-02-02T03:45:18;101272.59;;;8.44;78.69
48015;BME280;33780;51.034;7.120;2023-02-02T03:47:43;101277.94;;;8.44;78.59
48015;BME280;33780;51.034;7.120;2023-02-02T03:50:09;101270.66;;;8.46;78.17
48015;BME280;33780;51.034;7.120;2023-02-02T03:52:34;101274.28;;;8.45;78.90
48015;BME280;33780;51.034;7.120;2023-02-02T03:55:00;101279.63;;;8.45;78.68
48015;BME280;33780;51.034;7.120;2023-02-02T03:57:25;101277.94;;;8.44;78.87
48015;BME280;33780;51.034;7.120;2023-02-02T03:59:50;101284.19;;;8.43;78.42
48015;BME280;33780;51.034;7.120;2023-02-02T04:02:16;101276.19;;;8.43;78.89
48015;BME280;33780;51.034;7.120;2023-02-02T04:04:41;101278.09;;;8.41;78.59
48015;BME280;33780;51.034;7.120;2023-02-02T04:07:06;101279.81;;;8.42;79.00
48015;BME280;33780;51.034;7.120;2023-02-02T04:09:32;101284.41;;;8.40;79.09
48015;BME280;33780;51.034;7.120;2023-02-02T04:11:58;101281.63;;;8.42;79.23
48015;BME280;33780;51.034;7.120;2023-02-02T04:14:23;101286.97;;;8.42;78.74
48015;BME280;33780;51.034;7.120;2023-02-02T04:16:49;101275.44;;;8.41;78.78
48015;BME280;33780;51.034;7.120;2023-02-02T04:19:14;101290.47;;;8.42;79.08
48015;BME280;33780;51.034;7.120;2023-02-02T04:21:41;101289.63;;;8.42;79.19
48015;BME280;33780;51.034;7.120;2023-02-02T04:24:09;101280.78;;;8.41;79.09
48015;BME280;33780;51.034;7.120;2023-02-02T04:26:35;101286.09;;;8.41;78.98
48015;BME280;33780;51.034;7.120;2023-02-02T04:29:00;101294.97;;;8.42;79.39
48015;BME280;33780;51.034;7.120;2023-02-02T04:31:26;101290.47;;;8.42;78.94
48015;BME280;33780;51.034;7.120;2023-02-02T04:33:54;101298.59;;;8.41;79.44
48015;BME280;33780;51.034;7.120;2023-02-02T04:36:19;101295.06;;;8.40;79.76
48015;BME280;33780;51.034;7.120;2023-02-02T04:38:50;101297.75;;;8.40;79.34
48015;BME280;33780;51.034;7.120;2023-02-02T04:41:16;101301.25;;;8.41;79.36
48015;BME280;33780;51.034;7.120;2023-02-02T04:43:43;101303.06;;;8.40;79.53
48015;BME280;33780;51.034;7.120;2023-02-02T04:46:09;101301.38;;;8.39;79.71
48015;BME280;33780;51.034;7.120;2023-02-02T04:48:34;101309.47;;;8.38;79.98
48015;BME280;33780;51.034;7.120;2023-02-02T04:51:01;101311.28;;;8.37;79.61
48015;BME280;33780;51.034;7.120;2023-02-02T04:53:28;101312.25;;;8.36;80.01
48015;BME280;33780;51.034;7.120;2023-02-02T04:55:53;101308.72;;;8.36;80.38
48015;BME280;33780;51.034;7.120;2023-02-02T04:58:19;101329.31;;;8.34;80.11
48015;BME280;33780;51.034;7.120;2023-02-02T05:00:45;101315.88;;;8.35;80.20
48015;BME280;33780;51.034;7.120;2023-02-02T05:03:10;101313.38;;;8.32;80.56
48015;BME280;33780;51.034;7.120;2023-02-02T05:05:36;101311.66;;;8.31;80.59
48015;BME280;33780;51.034;7.120;2023-02-02T05:08:01;101312.63;;;8.30;80.23
48015;BME280;33780;51.034;7.120;2023-02-02T05:10:27;101309.97;;;8.30;80.66
48015;BME280;33780;51.034;7.120;2023-02-02T05:12:53;101306.44;;;8.30;80.58
48015;BME280;33780;51.034;7.120;2023-02-02T05:15:18;101307.41;;;8.29;80.70
48015;BME280;33780;51.034;7.120;2023-02-02T05:17:45;101307.41;;;8.29;80.90
48015;BME280;33780;51.034;7.120;2023-02-02T05:20:11;101317.97;;;8.30;80.28
48015;BME280;33780;51.034;7.120;2023-02-02T05:22:36;101317.97;;;8.30;80.40
48015;BME280;33780;51.034;7.120;2023-02-02T05:25:01;101316.16;;;8.31;80.76
48015;BME280;33780;51.034;7.120;2023-02-02T05:27:27;101317.97;;;8.30;80.75
48015;BME280;33780;51.034;7.120;2023-02-02T05:29:52;101315.31;;;8.30;80.94
48015;BME280;33780;51.034;7.120;2023-02-02T05:32:17;101319.66;;;8.31;80.81
48015;BME280;33780;51.034;7.120;2023-02-02T05:34:43;101313.47;;;8.31;80.85
48015;BME280;33780;51.034;7.120;2023-02-02T05:37:08;101312.53;;;8.32;80.73
48015;BME280;33780;51.034;7.120;2023-02-02T05:39:33;101310.63;;;8.34;80.80
48015;BME280;33780;51.034;7.120;2023-02-02T05:41:59;101305.38;;;8.32;80.65
48015;BME280;33780;51.034;7.120;2023-02-02T05:44:24;101305.38;;;8.32;80.45
48015;BME280;33780;51.034;7.120;2023-02-02T05:46:49;101308.91;;;8.33;80.61
48015;BME280;33780;51.034;7.120;2023-02-02T05:49:14;101315.97;;;8.34;80.56
48015;BME280;33780;51.034;7.120;2023-02-02T05:51:45;101317.75;;;8.33;80.84
48015;BME280;33780;51.034;7.120;2023-02-02T05:54:11;101314.22;;;8.33;80.91
48015;BME280;33780;51.034;7.120;2023-02-02T05:56:37;101313.31;;;8.34;80.63
48015;BME280;33780;51.034;7.120;2023-02-02T05:59:02;101309.69;;;8.35;80.71
48015;BME280;33780;51.034;7.120;2023-02-02T06:01:32;101299.88;;;8.35;80.65
48015;BME280;33780;51.034;7.120;2023-02-02T06:04:03;101306.06;;;8.36;80.53
48015;BME280;33780;51.034;7.120;2023-02-02T06:06:43;101309.47;;;8.38;80.75
48015;BME280;33780;51.034;7.120;2023-02-02T06:09:12;101314.81;;;8.38;80.68
48015;BME280;33780;51.034;7.120;2023-02-02T06:11:43;101323.66;;;8.38;80.65
48015;BME280;33780;51.034;7.120;2023-02-02T06:14:14;101337.84;;;8.39;80.80
48015;BME280;33780;51.034;7.120;2023-02-02T06:16:45;101335.19;;;8.39;80.92
48015;BME280;33780;51.034;7.120;2023-02-02T06:19:21;101337.94;;;8.37;80.95
48015;BME280;33780;51.034;7.120;2023-02-02T06:21:50;101332.50;;;8.39;80.54
48015;BME280;33780;51.034;7.120;2023-02-02T06:24:18;101341.38;;;8.39;80.91
48015;BME280;33780;51.034;7.120;2023-02-02T06:26:43;101335.06;;;8.40;80.79
48015;BME280;33780;51.034;7.120;2023-02-02T06:29:11;101339.44;;;8.41;80.57
48015;BME280;33780;51.034;7.120;2023-02-02T06:31:39;101347.44;;;8.41;80.43
48015;BME280;33780;51.034;7.120;2023-02-02T06:34:04;101346.59;;;8.41;81.03
48015;BME280;33780;51.034;7.120;2023-02-02T06:36:41;101352.88;;;8.40;81.03
48015;BME280;33780;51.034;7.120;2023-02-02T06:39:16;101357.75;;;8.33;81.31
48015;BME280;33780;51.034;7.120;2023-02-02T06:41:53;101355.09;;;8.33;80.81
48015;BME280;33780;51.034;7.120;2023-02-02T06:44:39;101356.91;;;8.33;80.72
48015;BME280;33780;51.034;7.120;2023-02-02T06:47:10;101355.88;;;8.35;80.86
48015;BME280;33780;51.034;7.120;2023-02-02T06:49:46;101352.34;;;8.35;80.88
48015;BME280;33780;51.034;7.120;2023-02-02T06:52:18;101356.81;;;8.34;81.01
48015;BME280;33780;51.034;7.120;2023-02-02T06:54:57;101345.09;;;8.37;81.11
48015;BME280;33780;51.034;7.120;2023-02-02T06:57:23;101346.91;;;8.36;81.03
48015;BME280;33780;51.034;7.120;2023-02-02T06:59:49;101354.06;;;8.36;81.22
48015;BME280;33780;51.034;7.120;2023-02-02T07:02:25;101349.56;;;8.36;81.02
48015;BME280;33780;51.034;7.120;2023-02-02T07:04:51;101353.09;;;8.37;80.99
48015;BME280;33780;51.034;7.120;2023-02-02T07:07:19;101358.53;;;8.35;80.85
48015;BME280;33780;51.034;7.120;2023-02-02T07:09:45;101377.97;;;8.37;81.08
48015;BME280;33780;51.034;7.120;2023-02-02T07:12:16;101371.66;;;8.38;81.13
48015;BME280;33780;51.034;7.120;2023-02-02T07:14:46;101374.22;;;8.40;80.89
48015;BME280;33780;51.034;7.120;2023-02-02T07:17:18;101363.66;;;8.38;80.96
48015;BME280;33780;51.034;7.120;2023-02-02T07:19:44;101368.13;;;8.38;81.42
48015;BME280;33780;51.034;7.120;2023-02-02T07:22:09;101377.97;;;8.37;81.25
48015;BME280;33780;51.034;7.120;2023-02-02T07:24:35;101376.13;;;8.38;80.83
48015;BME280;33780;51.034;7.120;2023-02-02T07:27:02;101371.78;;;8.37;81.16
48015;BME280;33780;51.034;7.120;2023-02-02T07:29:28;101386.91;;;8.36;80.70
48015;BME280;33780;51.034;7.120;2023-02-02T07:31:53;101385.00;;;8.38;80.80
48015;BME280;33780;51.034;7.120;2023-02-02T07:34:18;101385.00;;;8.38;81.04
48015;BME280;33780;51.034;7.120;2023-02-02T07:36:44;101391.19;;;8.39;81.21
48015;BME280;33780;51.034;7.120;2023-02-02T07:39:10;101376.13;;;8.38;80.75
48015;BME280;33780;51.034;7.120;2023-02-02T07:41:35;101382.22;;;8.40;80.79
48015;BME280;33780;51.034;7.120;2023-02-02T07:44:01;101391.19;;;8.39;80.76
48015;BME280;33780;51.034;7.120;2023-02-02T07:46:27;101395.56;;;8.40;81.02
48015;BME280;33780;51.034;7.120;2023-02-02T07:48:55;101405.38;;;8.39;80.83
48015;BME280;33780;51.034;7.120;2023-02-02T07:51:22;101391.19;;;8.39;80.71
48015;BME280;33780;51.034;7.120;2023-02-02T07:53:49;101402.81;;;8.38;81.32
48015;BME280;33780;51.034;7.120;2023-02-02T07:56:22;101401.00;;;8.38;81.07
48015;BME280;33780;51.034;7.120;2023-02-02T07:58:50;101407.19;;;8.39;80.97
48015;BME280;33780;51.034;7.120;2023-02-02T08:01:15;101388.63;;;8.37;81.10
48015;BME280;33780;51.034;7.120;2023-02-02T08:03:42;101402.91;;;8.36;81.34
48015;BME280;33780;51.034;7.120;2023-02-02T08:06:14;101403.97;;;8.34;81.24
48015;BME280;33780;51.034;7.120;2023-02-02T08:08:41;101392.34;;;8.35;81.08
48015;BME280;33780;51.034;7.120;2023-02-02T08:11:09;101400.34;;;8.35;81.01
48015;BME280;33780;51.034;7.120;2023-02-02T08:13:35;101402.81;;;8.38;81.14
48015;BME280;33780;51.034;7.120;2023-02-02T08:16:01;101395.78;;;8.37;81.02
48015;BME280;33780;51.034;7.120;2023-02-02T08:18:29;101393.09;;;8.37;81.40
48015;BME280;33780;51.034;7.120;2023-02-02T08:21:01;101400.25;;;8.36;81.27
48015;BME280;33780;51.034;7.120;2023-02-02T08:23:27;101404.72;;;8.36;81.29
48015;BME280;33780;51.034;7.120;2023-02-02T08:26:07;101404.72;;;8.36;81.22
48015;BME280;33780;51.034;7.120;2023-02-02T08:28:36;101406.53;;;8.35;80.89
48015;BME280;33780;51.034;7.120;2023-02-02T08:31:06;101411.03;;;8.35;81.26
48015;BME280;33780;51.034;7.120;2023-02-02T08:33:31;101412.63;;;8.37;81.01
48015;BME280;33780;51.034;7.120;2023-02-02T08:35:57;101418.91;;;8.36;81.18
48015;BME280;33780;51.034;7.120;2023-02-02T08:38:23;101413.59;;;8.36;81.04
48015;BME280;33780;51.034;7.120;2023-02-02T08:40:48;101415.41;;;8.36;81.16
48015;BME280;33780;51.034;7.120;2023-02-02T08:43:13;101412.63;;;8.37;81.63
48015;BME280;33780;51.034;7.120;2023-02-02T08:45:41;101423.28;;;8.37;81.34
48015;BME280;33780;51.034;7.120;2023-02-02T08:48:07;101416.16;;;8.38;81.26
48015;BME280;33780;51.034;7.120;2023-02-02T08:50:32;101424.03;;;8.39;81.15
48015;BME280;33780;51.034;7.120;2023-02-02T08:52:57;101431.09;;;8.40;81.25
48015;BME280;33780;51.034;7.120;2023-02-02T08:55:23;101429.28;;;8.41;81.36
48015;BME280;33780;51.034;7.120;2023-02-02T08:57:48;101428.31;;;8.42;81.37
48015;BME280;33780;51.034;7.120;2023-02-02T09:00:14;101436.41;;;8.40;81.72
48015;BME280;33780;51.034;7.120;2023-02-02T09:02:39;101439.84;;;8.42;81.54
48015;BME280;33780;51.034;7.120;2023-02-02T09:05:05;101437.19;;;8.42;81.58
48015;BME280;33780;51.034;7.120;2023-02-02T09:07:31;101459.47;;;8.41;81.60
48015;BME280;33780;51.034;7.120;2023-02-02T09:09:56;101454.13;;;8.41;81.50
48015;BME280;33780;51.034;7.120;2023-02-02T09:12:22;101459.47;;;8.41;81.43
48015;BME280;33780;51.034;7.120;2023-02-02T09:14:48;101456.81;;;8.41;81.80
48015;BME280;33780;51.034;7.120;2023-02-02T09:17:13;101450.50;;;8.42;81.05
48015;BME280;33780;51.034;7.120;2023-02-02T09:19:44;101455.00;;;8.42;81.47
48015;BME280;33780;51.034;7.120;2023-02-02T09:22:09;101452.41;;;8.40;81.22
48015;BME280;33780;51.034;7.120;2023-02-02T09:24:35;101456.81;;;8.41;81.60
48015;BME280;33780;51.034;7.120;2023-02-02T09:27:00;101454.13;;;8.41;81.33
48015;BME280;33780;51.034;7.120;2023-02-02T09:29:26;101463.84;;;8.42;81.21
48015;BME280;33780;51.034;7.120;2023-02-02T09:31:51;101476.31;;;8.42;81.55
48015;BME280;33780;51.034;7.120;2023-02-02T09:34:16;101475.47;;;8.41;81.55
48015;BME280;33780;51.034;7.120;2023-02-02T09:36:42;101481.00;;;8.38;81.66
48015;BME280;33780;51.034;7.120;2023-02-02T09:39:11;101490.81;;;8.38;81.67
48015;BME280;33780;51.034;7.120;2023-02-02T09:44:33;101495.31;;;8.37;81.93
48015;BME280;33780;51.034;7.120;2023-02-02T09:47:20;101499.78;;;8.37;81.95
48015;BME280;33780;51.034;7.120;2023-02-02T09:52:41;101512.16;;;8.38;82.42
48015;BME280;33780;51.034;7.120;2023-02-02T09:55:21;101514.81;;;8.38;82.28
48015;BME280;33780;51.034;7.120;2023-02-02T09:58:07;101521.13;;;8.37;82.08
48015;BME280;33780;51.034;7.120;2023-02-02T10:01:23;101526.56;;;8.35;82.55
48015;BME280;33780;51.034;7.120;2023-02-02T10:04:00;101523.88;;;8.35;81.91
48015;BME280;33780;51.034;7.120;2023-02-02T10:06:36;101535.41;;;8.36;82.28
48015;BME280;33780;51.034;7.120;2023-02-02T10:12:29;101539.78;;;8.37;82.49
48015;BME280;33780;51.034;7.120;2023-02-02T10:15:14;101544.25;;;8.36;82.35
48015;BME280;33780;51.034;7.120;2023-02-02T10:17:53;101549.50;;;8.38;82.88
48015;BME280;33780;51.034;7.120;2023-02-02T10:20:35;101534.34;;;8.38;82.56
48015;BME280;33780;51.034;7.120;2023-02-02T10:23:14;101551.09;;;8.40;82.97
48015;BME280;33780;51.034;7.120;2023-02-02T10:25:54;101560.81;;;8.41;82.70
48015;BME280;33780;51.034;7.120;2023-02-02T10:28:28;101556.44;;;8.40;82.88
48015;BME280;33780;51.034;7.120;2023-02-02T10:31:00;101569.88;;;8.39;83.15
48015;BME280;33780;51.034;7.120;2023-02-02T10:33:35;101560.91;;;8.40;82.78
48015;BME280;33780;51.034;7.120;2023-02-02T10:36:10;101583.97;;;8.41;82.56
48015;BME280;33780;51.034;7.120;2023-02-02T10:38:49;101573.31;;;8.41;82.83
48015;BME280;33780;51.034;7.120;2023-02-02T10:44:29;101571.50;;;8.41;82.68
48015;BME280;33780;51.034;7.120;2023-02-02T10:46:59;101572.25;;;8.43;82.74
48015;BME280;33780;51.034;7.120;2023-02-02T10:52:06;101577.59;;;8.43;82.79
48015;BME280;33780;51.034;7.120;2023-02-02T11:02:49;101573.78;;;8.47;82.80
48015;BME280;33780;51.034;7.120;2023-02-02T11:05:20;101574.53;;;8.50;82.68
48015;BME280;33780;51.034;7.120;2023-02-02T11:08:20;101586.94;;;8.51;82.85
48015;BME280;33780;51.034;7.120;2023-02-02T11:10:50;101584.06;;;8.54;82.87
48015;BME280;33780;51.034;7.120;2023-02-02T11:13:29;101581.19;;;8.57;82.60
48015;BME280;33780;51.034;7.120;2023-02-02T11:18:38;101586.44;;;8.58;82.61
48015;BME280;33780;51.034;7.120;2023-02-02T11:21:23;101594.34;;;8.60;82.37
48015;BME280;33780;51.034;7.120;2023-02-02T11:24:01;101597.84;;;8.60;82.47
48015;BME280;33780;51.034;7.120;2023-02-02T11:27:21;101587.97;;;8.62;82.50
48015;BME280;33780;51.034;7.120;2023-02-02T11:29:48;101592.34;;;8.63;81.92
48015;BME280;33780;51.034;7.120;2023-02-02T11:35:18;101592.34;;;8.63;82.01
48015;BME280;33780;51.034;7.120;2023-02-02T11:37:55;101588.91;;;8.61;81.86
48015;BME280;33780;51.034;7.120;2023-02-02T11:40:31;101587.13;;;8.62;82.08
48015;BME280;33780;51.034;7.120;2023-02-02T11:43:00;101590.72;;;8.61;81.77
48015;BME280;33780;51.034;7.120;2023-02-02T11:45:35;101596.91;;;8.61;81.88
48015;BME280;33780;51.034;7.120;2023-02-02T11:48:06;101595.97;;;8.62;82.11
48015;BME280;33780;51.034;7.120;2023-02-02T11:50:37;101593.38;;;8.61;81.83
48015;BME280;33780;51.034;7.120;2023-02-02T11:53:02;101587.13;;;8.62;81.50
48015;BME280;33780;51.034;7.120;2023-02-02T11:55:30;101583.50;;;8.63;82.07
48015;BME280;33780;51.034;7.120;2023-02-02T12:00:50;101580.63;;;8.66;81.47
48015;BME280;33780;51.034;7.120;2023-02-02T12:03:32;101582.44;;;8.65;81.65
48015;BME280;33780;51.034;7.120;2023-02-02T12:05:59;101584.16;;;8.66;81.54
48015;BME280;33780;51.034;7.120;2023-02-02T12:08:26;101578.81;;;8.66;81.48
48015;BME280;33780;51.034;7.120;2023-02-02T12:19:22;101566.97;;;8.70;81.15
48015;BME280;33780;51.034;7.120;2023-02-02T12:22:06;101572.09;;;8.73;81.29
48015;BME280;33780;51.034;7.120;2023-02-02T12:24:59;101571.06;;;8.76;81.38
48015;BME280;33780;51.034;7.120;2023-02-02T12:30:20;101579.06;;;8.76;80.71
48015;BME280;33780;51.034;7.120;2023-02-02T12:33:07;101575.53;;;8.75;80.86
48015;BME280;33780;51.034;7.120;2023-02-02T12:41:35;101564.38;;;8.83;80.89
48015;BME280;33780;51.034;7.120;2023-02-02T12:53:04;101578.91;;;8.92;80.85
48015;BME280;33780;51.034;7.120;2023-02-02T12:56:05;101569.09;;;8.92;80.55
48015;BME280;33780;51.034;7.120;2023-02-02T13:01:45;101559.38;;;8.91;80.59
48015;BME280;33780;51.034;7.120;2023-02-02T13:04:47;101569.00;;;8.94;80.78
48015;BME280;33780;51.034;7.120;2023-02-02T13:07:29;101572.53;;;8.94;80.49
48015;BME280;33780;51.034;7.120;2023-02-02T13:10:15;101570.72;;;8.95;80.72
48015;BME280;33780;51.034;7.120;2023-02-02T13:12:47;101577.75;;;8.96;80.54
48015;BME280;33780;51.034;7.120;2023-02-02T13:15:18;101568.72;;;8.98;80.42
48015;BME280;33780;51.034;7.120;2023-02-02T13:17:51;101572.13;;;9.00;80.34
48015;BME280;33780;51.034;7.120;2023-02-02T13:20:40;101568.41;;;9.03;80.28
48015;BME280;33780;51.034;7.120;2023-02-02T13:26:05;101567.56;;;9.02;79.92
48015;BME280;33780;51.034;7.120;2023-02-02T13:28:40;101570.31;;;9.01;79.34
48015;BME280;33780;51.034;7.120;2023-02-02T13:31:16;101573.75;;;9.03;79.75
48015;BME280;33780;51.034;7.120;2023-02-02T13:33:45;101574.59;;;9.03;79.60
48015;BME280;33780;51.034;7.120;2023-02-02T13:36:21;101570.97;;;9.04;79.49
48015;BME280;33780;51.034;7.120;2023-02-02T13:38:57;101573.53;;;9.06;79.48
48015;BME280;33780;51.034;7.120;2023-02-02T13:41:24;101576.22;;;9.06;79.40
48015;BME280;33780;51.034;7.120;2023-02-02T13:44:07;101575.25;;;9.07;79.50
48015;BME280;33780;51.034;7.120;2023-02-02T13:46:51;101576.97;;;9.08;79.16
48015;BME280;33780;51.034;7.120;2023-02-02T13:49:37;101576.22;;;9.06;79.13
48015;BME280;33780;51.034;7.120;2023-02-02T13:55:19;101579.63;;;9.08;79.25
48015;BME280;33780;51.034;7.120;2023-02-02T14:02:51;101584.13;;;9.07;79.38
48015;BME280;33780;51.034;7.120;2023-02-02T14:05:39;101595.66;;;9.08;79.44
48015;BME280;33780;51.034;7.120;2023-02-02T14:08:16;101587.66;;;9.08;79.41
48015;BME280;33780;51.034;7.120;2023-02-02T14:13:23;101588.41;;;9.10;79.66
48015;BME280;33780;51.034;7.120;2023-02-02T14:17:01;101589.34;;;9.09;79.62
48015;BME280;33780;51.034;7.120;2023-02-02T14:19:45;101594.69;;;9.09;79.74
48015;BME280;33780;51.034;7.120;2023-02-02T14:32:00;101592.44;;;9.03;79.84
48015;BME280;33780;51.034;7.120;2023-02-02T14:34:30;101584.31;;;9.04;79.84
48015;BME280;33780;51.034;7.120;2023-02-02T14:48:46;101595.66;;;9.08;80.02
48015;BME280;33780;51.034;7.120;2023-02-02T14:51:15;101603.66;;;9.08;80.08
48015;BME280;33780;51.034;7.120;2023-02-02T14:53:53;101614.25;;;9.09;79.84
48015;BME280;33780;51.034;7.120;2023-02-02T14:56:19;101600.91;;;9.09;79.69
48015;BME280;33780;51.034;7.120;2023-02-02T14:59:16;101608.91;;;9.09;79.64
48015;BME280;33780;51.034;7.120;2023-02-02T15:01:53;101615.97;;;9.11;79.80
48015;BME280;33780;51.034;7.120;2023-02-02T15:06:47;101621.00;;;9.15;79.75
48015;BME280;33780;51.034;7.120;2023-02-02T15:09:36;101621.94;;;9.14;79.78
48015;BME280;33780;51.034;7.120;2023-02-02T15:14:51;101627.13;;;9.17;79.69
48015;BME280;33780;51.034;7.120;2023-02-02T15:17:33;101626.16;;;9.18;79.52
48015;BME280;33780;51.034;7.120;2023-02-02T15:28:08;101625.84;;;9.23;79.42
48015;BME280;33780;51.034;7.120;2023-02-02T15:30:36;101632.91;;;9.24;79.38
48015;BME280;33780;51.034;7.120;2023-02-02T15:33:23;101632.91;;;9.24;79.15
48015;BME280;33780;51.034;7.120;2023-02-02T15:35:52;101636.53;;;9.23;79.24
48015;BME280;33780;51.034;7.120;2023-02-02T15:38:19;101637.38;;;9.23;79.04